createdAt,value
2022-12-12T00:00:43.859Z,88.66
2022-12-12T00:03:11.326Z,88.27
2022-12-12T00:05:38.655Z,89.19
2022-12-12T00:08:05.819Z,88.23
2022-12-12T00:10:33.785Z,88.82
2022-12-12T00:13:00.678Z,88.40
2022-12-12T00:15:29.788Z,88.67
2022-12-12T00:17:56.673Z,88.48
2022-12-12T00:20:23.656Z,88.79
2022-12-12T00:22:50.483Z,88.99
2022-12-12T00:25:17.414Z,89.76
2022-12-12T00:27:44.378Z,88.64
2022-12-12T00:30:11.826Z,88.52
2022-12-12T00:32:38.668Z,88.05
2022-12-12T00:35:06.304Z,87.76
2022-12-12T00:37:33.154Z,87.86
2022-12-12T00:40:00.060Z,87.74
2022-12-12T00:42:27.287Z,87.09
2022-12-12T00:44:54.281Z,88.33
2022-12-12T00:47:21.083Z,88.57
2022-12-12T00:49:47.893Z,89.44
2022-12-12T00:52:14.734Z,90.29
2022-12-12T00:54:41.604Z,91.65
2022-12-12T00:57:08.506Z,91.66
2022-12-12T00:59:35.384Z,91.48
2022-12-12T01:02:02.240Z,92.53
2022-12-12T01:04:29.083Z,91.93
2022-12-12T01:06:55.939Z,92.25
2022-12-12T01:09:22.811Z,92.87
2022-12-12T01:11:49.597Z,92.30
2022-12-12T01:14:16.443Z,92.06
2022-12-12T01:16:43.443Z,91.95
2022-12-12T01:19:10.270Z,92.18
2022-12-12T01:21:37.303Z,91.57
2022-12-12T01:24:04.784Z,91.75
2022-12-12T01:26:31.751Z,91.86
2022-12-12T01:28:58.646Z,92.34
2022-12-12T01:31:25.649Z,91.51
2022-12-12T01:33:52.527Z,92.15
2022-12-12T01:36:22.642Z,92.06
2022-12-12T01:38:52.979Z,92.34
2022-12-12T01:41:21.303Z,92.25
2022-12-12T01:43:48.922Z,92.47
2022-12-12T01:46:21.736Z,91.23
2022-12-12T01:49:17.194Z,91.95
2022-12-12T01:51:45.694Z,92.73
2022-12-12T01:54:21.533Z,93.33
2022-12-12T01:56:49.610Z,93.29
2022-12-12T01:59:19.489Z,92.99
2022-12-12T02:01:46.946Z,94.13
2022-12-12T02:04:17.118Z,95.42
2022-12-12T02:06:44.317Z,96.21
2022-12-12T02:09:14.035Z,96.27
2022-12-12T02:11:49.227Z,95.12
2022-12-12T02:14:22.674Z,95.01
2022-12-12T02:17:55.127Z,93.90
2022-12-12T02:21:18.926Z,94.21
2022-12-12T02:24:30.302Z,93.33
2022-12-12T02:27:58.755Z,93.25
2022-12-12T02:30:59.626Z,93.16
2022-12-12T02:34:11.177Z,93.33
2022-12-12T02:37:03.881Z,92.66
2022-12-12T02:40:07.158Z,92.50
2022-12-12T02:43:00.749Z,91.77
2022-12-12T02:45:37.726Z,91.58
2022-12-12T02:48:19.984Z,90.95
2022-12-12T02:50:51.804Z,90.37
2022-12-12T02:53:23.936Z,90.43
2022-12-12T02:56:02.694Z,90.30
2022-12-12T02:58:30.425Z,90.37
2022-12-12T03:01:30.091Z,89.91
2022-12-12T03:04:24.999Z,90.05
2022-12-12T03:07:24.829Z,89.37
2022-12-12T03:10:13.738Z,89.00
2022-12-12T03:13:23.249Z,89.56
2022-12-12T03:16:18.944Z,88.84
2022-12-12T03:19:13.732Z,88.87
2022-12-12T03:22:03.712Z,89.24
2022-12-12T03:24:52.451Z,88.15
2022-12-12T03:27:36.267Z,87.42
2022-12-12T03:30:11.517Z,87.25
2022-12-12T03:32:48.404Z,87.40
2022-12-12T03:35:39.785Z,86.45
2022-12-12T03:38:17.872Z,85.31
2022-12-12T03:40:50.275Z,85.37
2022-12-12T03:43:22.704Z,85.53
2022-12-12T03:46:09.790Z,85.18
2022-12-12T03:49:00.729Z,85.46
2022-12-12T03:51:35.010Z,84.90
2022-12-12T03:54:18.231Z,84.76
2022-12-12T03:57:11.798Z,85.30
2022-12-12T04:00:08.962Z,85.77
2022-12-12T04:03:05.674Z,85.12
2022-12-12T04:06:13.098Z,84.81
2022-12-12T04:09:00.521Z,84.60
2022-12-12T04:12:10.645Z,84.65
2022-12-12T04:15:19.613Z,85.17
2022-12-12T04:18:26.768Z,85.80
2022-12-12T04:21:52.717Z,85.67
2022-12-12T04:24:51.124Z,85.45
2022-12-12T04:27:46.821Z,85.68
2022-12-12T04:30:15.939Z,85.37
2022-12-12T04:33:01.892Z,85.47
2022-12-12T04:35:39.506Z,87.18
2022-12-12T04:38:22.735Z,87.13
2022-12-12T04:40:57.534Z,87.05
2022-12-12T04:43:37.338Z,87.22
2022-12-12T04:46:13.630Z,86.82
2022-12-12T04:49:07.134Z,87.09
2022-12-12T04:51:42.483Z,86.66
2022-12-12T04:54:31.364Z,86.36
2022-12-12T04:57:01.905Z,86.37
2022-12-12T04:59:29.638Z,86.39
2022-12-12T05:02:11.038Z,86.72
2022-12-12T05:04:53.343Z,86.46
2022-12-12T05:07:43.386Z,86.53
2022-12-12T05:10:20.124Z,87.48
2022-12-12T05:12:53.837Z,88.17
2022-12-12T05:15:21.172Z,88.56
2022-12-12T05:18:02.070Z,88.36
2022-12-12T05:20:30.676Z,88.38
2022-12-12T05:22:57.548Z,88.51
2022-12-12T05:25:24.489Z,88.33
2022-12-12T05:27:51.362Z,87.43
2022-12-12T05:30:18.288Z,87.85
2022-12-12T05:32:45.134Z,87.28
2022-12-12T05:35:12.447Z,87.54
2022-12-12T05:37:39.592Z,86.57
2022-12-12T05:40:10.962Z,86.57
2022-12-12T05:42:38.096Z,88.00
2022-12-12T05:45:07.331Z,88.42
2022-12-12T05:47:34.297Z,88.33
2022-12-12T05:50:01.613Z,87.50
2022-12-12T05:52:28.479Z,88.42
2022-12-12T05:54:55.521Z,88.93
2022-12-12T05:57:22.782Z,88.68
2022-12-12T05:59:49.733Z,88.17
2022-12-12T06:02:17.172Z,88.40
2022-12-12T06:04:44.512Z,88.72
2022-12-12T06:07:11.404Z,88.56
2022-12-12T06:09:38.336Z,88.31
2022-12-12T06:12:05.513Z,88.68
2022-12-12T06:14:32.298Z,88.65
2022-12-12T06:16:59.216Z,89.27
2022-12-12T06:19:26.069Z,88.82
2022-12-12T06:21:52.898Z,88.92
2022-12-12T06:24:20.120Z,88.25
2022-12-12T06:26:47.053Z,89.21
2022-12-12T06:29:14.864Z,88.71
2022-12-12T06:31:41.985Z,88.82
2022-12-12T06:34:08.868Z,89.39
2022-12-12T06:36:36.667Z,91.23
2022-12-12T06:39:04.290Z,89.93
2022-12-12T06:41:32.325Z,89.56
2022-12-12T06:43:59.458Z,88.82
2022-12-12T06:46:29.322Z,88.99
2022-12-12T06:48:57.076Z,89.18
2022-12-12T06:51:28.226Z,89.92
2022-12-12T06:53:56.700Z,89.36
2022-12-12T06:56:26.486Z,89.67
2022-12-12T06:58:54.061Z,89.56
2022-12-12T07:01:23.327Z,89.33
2022-12-12T07:03:52.146Z,88.63
2022-12-12T07:06:21.599Z,89.30
2022-12-12T07:08:49.354Z,89.61
2022-12-12T07:11:20.390Z,89.21
2022-12-12T07:13:47.483Z,89.62
2022-12-12T07:16:15.302Z,89.09
2022-12-12T07:18:42.714Z,89.20
2022-12-12T07:21:13.966Z,89.60
2022-12-12T07:23:41.027Z,89.28
2022-12-12T07:26:14.503Z,88.68
2022-12-12T07:28:41.816Z,88.57
2022-12-12T07:31:13.923Z,89.16
2022-12-12T07:33:44.153Z,88.36
2022-12-12T07:36:13.386Z,89.14
2022-12-12T07:38:40.567Z,88.41
2022-12-12T07:41:12.035Z,87.95
2022-12-12T07:43:44.341Z,87.83
2022-12-12T07:46:20.147Z,87.93
2022-12-12T07:48:47.743Z,87.13
2022-12-12T07:51:15.343Z,87.26
2022-12-12T07:53:42.662Z,86.77
2022-12-12T07:56:13.134Z,87.10
2022-12-12T07:58:40.543Z,87.07
2022-12-12T08:01:21.452Z,85.85
2022-12-12T08:03:49.856Z,86.55
2022-12-12T08:06:18.897Z,86.85
2022-12-12T08:08:47.417Z,86.65
2022-12-12T08:11:19.474Z,87.25
2022-12-12T08:13:46.781Z,87.42
2022-12-12T08:16:26.655Z,86.94
2022-12-12T08:18:56.231Z,86.61
2022-12-12T08:21:26.098Z,87.33
2022-12-12T08:24:02.493Z,87.18
2022-12-12T08:26:30.457Z,86.31
2022-12-12T08:28:57.776Z,86.74
2022-12-12T08:31:25.898Z,86.05
2022-12-12T08:33:53.245Z,85.55
2022-12-12T08:36:26.715Z,84.36
2022-12-12T08:38:53.572Z,84.36
2022-12-12T08:41:28.419Z,84.26
2022-12-12T08:43:55.355Z,85.02
2022-12-12T08:46:23.262Z,84.50
2022-12-12T08:48:50.339Z,84.58
2022-12-12T08:51:18.532Z,85.06
2022-12-12T08:53:47.085Z,84.62
2022-12-12T08:56:15.071Z,83.73
2022-12-12T08:58:43.801Z,83.18
2022-12-12T09:01:16.141Z,84.58
2022-12-12T09:03:43.087Z,83.68
2022-12-12T09:06:10.894Z,83.61
2022-12-12T09:08:38.952Z,83.93
2022-12-12T09:11:06.388Z,82.84
2022-12-12T09:13:33.730Z,83.31
2022-12-12T09:16:00.728Z,84.03
2022-12-12T09:18:28.324Z,84.59
2022-12-12T09:20:59.005Z,84.16
2022-12-12T09:23:28.681Z,83.49
2022-12-12T09:25:55.833Z,83.95
2022-12-12T09:28:25.391Z,83.58
2022-12-12T09:30:52.374Z,82.62
2022-12-12T09:33:19.992Z,83.15
2022-12-12T09:35:46.942Z,82.27
2022-12-12T09:38:15.014Z,80.15
2022-12-12T09:41:10.894Z,78.38
2022-12-12T09:43:39.475Z,77.40
2022-12-12T09:46:25.930Z,77.10
2022-12-12T09:48:53.972Z,77.86
2022-12-12T09:51:20.799Z,74.63
2022-12-12T09:53:47.813Z,75.62
2022-12-12T09:56:44.755Z,75.39
2022-12-12T09:59:30.717Z,74.53
2022-12-12T10:02:21.929Z,73.61
2022-12-12T10:05:28.461Z,71.72
2022-12-12T10:08:21.882Z,71.71
2022-12-12T10:13:31.916Z,72.07
2022-12-12T10:16:12.764Z,72.11
2022-12-12T10:18:48.440Z,72.49
2022-12-12T10:21:23.769Z,73.32
2022-12-12T10:24:02.162Z,71.59
2022-12-12T10:26:30.793Z,70.27
2022-12-12T10:29:22.066Z,71.41
2022-12-12T10:32:42.326Z,71.72
2022-12-12T10:35:29.203Z,71.24
2022-12-12T10:38:41.572Z,72.69
2022-12-12T10:41:36.261Z,73.60
2022-12-12T10:44:52.262Z,75.48
2022-12-12T10:47:19.388Z,74.99
2022-12-12T10:49:46.237Z,74.72
2022-12-12T10:52:22.685Z,73.41
2022-12-12T10:55:00.075Z,74.00
2022-12-12T10:57:29.551Z,74.03
2022-12-12T10:59:58.593Z,73.92
2022-12-12T11:02:39.866Z,73.03
2022-12-12T11:05:17.563Z,72.70
2022-12-12T11:08:07.899Z,71.66
2022-12-12T11:10:38.361Z,71.67
2022-12-12T11:13:11.345Z,70.28
2022-12-12T11:16:13.764Z,69.29
2022-12-12T11:18:41.138Z,69.88
2022-12-12T11:21:10.009Z,68.35
2022-12-12T11:23:55.515Z,67.43
2022-12-12T11:26:22.765Z,67.13
2022-12-12T11:28:59.802Z,67.67
2022-12-12T11:31:31.774Z,68.72
2022-12-12T11:34:06.265Z,69.35
2022-12-12T11:36:37.616Z,68.96
2022-12-12T11:39:28.839Z,66.98
2022-12-12T11:42:16.999Z,66.44
2022-12-12T11:44:45.642Z,67.24
2022-12-12T11:47:23.959Z,67.99
2022-12-12T11:50:00.234Z,68.13
2022-12-12T11:52:32.868Z,68.66
2022-12-12T11:55:00.764Z,69.56
2022-12-12T11:57:33.496Z,69.52
2022-12-12T12:00:11.887Z,69.38
2022-12-12T12:03:15.134Z,70.38
2022-12-12T12:06:02.295Z,71.92
2022-12-12T12:08:58.895Z,72.67
2022-12-12T12:11:45.678Z,73.33
2022-12-12T12:14:36.511Z,73.55
2022-12-12T12:17:16.093Z,73.41
2022-12-12T12:20:16.751Z,74.68
2022-12-12T12:23:30.498Z,74.30
2022-12-12T12:26:42.051Z,75.36
2022-12-12T12:29:57.073Z,75.66
2022-12-12T12:32:58.893Z,76.31
2022-12-12T12:35:32.276Z,75.79
2022-12-12T12:38:20.963Z,75.66
2022-12-12T12:41:24.154Z,75.95
2022-12-12T12:44:34.156Z,76.81
2022-12-12T12:47:13.313Z,76.45
2022-12-12T12:50:06.162Z,76.50
2022-12-12T12:52:46.097Z,75.85
2022-12-12T12:55:21.373Z,75.97
2022-12-12T12:57:50.579Z,76.64
2022-12-12T13:00:23.679Z,75.97
2022-12-12T13:03:07.786Z,75.76
2022-12-12T13:05:53.000Z,75.23
2022-12-12T13:08:34.866Z,75.17
2022-12-12T13:11:14.838Z,75.87
2022-12-12T13:13:44.917Z,75.54
2022-12-12T13:16:18.487Z,76.04
2022-12-12T13:18:50.551Z,75.74
2022-12-12T13:21:40.935Z,75.98
2022-12-12T13:24:28.262Z,75.47
2022-12-12T13:27:21.408Z,76.41
2022-12-12T13:29:53.819Z,77.20
2022-12-12T13:32:23.668Z,76.45
2022-12-12T13:34:59.680Z,75.99
2022-12-12T13:37:29.730Z,76.38
2022-12-12T13:40:07.128Z,76.71
2022-12-12T13:43:05.719Z,76.57
2022-12-12T13:45:39.171Z,75.45
2022-12-12T13:48:34.185Z,76.61
2022-12-12T13:51:30.227Z,76.30
2022-12-12T13:54:13.669Z,77.27
2022-12-12T13:56:52.898Z,75.61
2022-12-12T13:59:22.421Z,74.93
2022-12-12T14:02:01.438Z,74.68
2022-12-12T14:04:43.823Z,73.53
2022-12-12T14:07:18.029Z,74.02
2022-12-12T14:09:56.839Z,74.23
2022-12-12T14:12:31.568Z,74.60
2022-12-12T14:15:00.210Z,74.41
2022-12-12T14:17:30.431Z,75.13
2022-12-12T14:19:59.407Z,75.40
2022-12-12T14:22:46.403Z,75.17
2022-12-12T14:25:17.151Z,75.44
2022-12-12T14:27:49.909Z,75.23
2022-12-12T14:30:44.943Z,75.20
2022-12-12T14:33:17.774Z,75.09
2022-12-12T14:36:03.870Z,75.03
2022-12-12T14:38:46.872Z,75.25
2022-12-12T14:41:21.237Z,74.99
2022-12-12T14:44:37.421Z,74.97
2022-12-12T14:46:43.574Z,74.76
2022-12-12T14:49:16.410Z,75.51
2022-12-12T14:51:45.775Z,75.20
2022-12-12T14:54:19.463Z,74.59
2022-12-12T14:56:52.964Z,75.41
2022-12-12T14:59:23.035Z,75.56
2022-12-12T15:02:25.776Z,75.70
2022-12-12T15:05:04.353Z,75.74
2022-12-12T15:07:41.049Z,75.83
2022-12-12T15:10:27.472Z,76.28
2022-12-12T15:12:54.546Z,76.15
2022-12-12T15:15:27.456Z,75.83
2022-12-12T15:17:57.092Z,76.20
2022-12-12T15:20:30.415Z,75.56
2022-12-12T15:23:07.409Z,75.86
2022-12-12T15:25:47.278Z,75.39
2022-12-12T15:28:19.294Z,75.74
2022-12-12T15:30:50.148Z,75.93
2022-12-12T15:33:23.708Z,75.94
2022-12-12T15:36:05.222Z,76.31
2022-12-12T15:38:33.680Z,76.85
2022-12-12T15:41:06.668Z,77.94
2022-12-12T15:43:37.274Z,78.23
2022-12-12T15:46:14.144Z,77.98
2022-12-12T15:48:49.695Z,77.93
2022-12-12T15:51:24.288Z,78.64
2022-12-12T15:53:53.220Z,78.48
2022-12-12T15:56:19.919Z,79.35
2022-12-12T15:58:49.711Z,79.27
2022-12-12T16:01:20.766Z,79.14
2022-12-12T16:04:09.828Z,78.89
2022-12-12T16:06:45.904Z,79.26
2022-12-12T16:09:27.660Z,79.53
2022-12-12T16:11:56.181Z,79.89
2022-12-12T16:14:41.662Z,79.38
2022-12-12T16:17:24.084Z,79.55
2022-12-12T16:20:13.862Z,79.28
2022-12-12T16:22:48.276Z,79.59
2022-12-12T16:25:23.661Z,79.63
2022-12-12T16:28:08.111Z,80.24
2022-12-12T16:30:37.012Z,80.04
2022-12-12T16:33:38.960Z,80.16
2022-12-12T16:36:13.006Z,80.23
2022-12-12T16:38:41.140Z,80.46
2022-12-12T16:41:13.186Z,80.68
2022-12-12T16:43:40.476Z,81.07
2022-12-12T16:46:21.143Z,80.81
2022-12-12T16:48:48.287Z,80.70
2022-12-12T16:51:28.366Z,80.63
2022-12-12T16:53:55.542Z,80.91
2022-12-12T16:56:22.711Z,81.36
2022-12-12T16:58:50.475Z,81.31
2022-12-12T17:01:17.389Z,81.96
2022-12-12T17:03:44.267Z,82.05
2022-12-12T17:06:11.358Z,81.91
2022-12-12T17:08:38.594Z,81.42
2022-12-12T17:11:10.055Z,81.53
2022-12-12T17:13:48.317Z,81.30
2022-12-12T17:16:16.082Z,81.08
2022-12-12T17:18:42.935Z,80.85
2022-12-12T17:21:09.836Z,81.02
2022-12-12T17:23:36.724Z,80.71
2022-12-12T17:26:04.933Z,80.37
2022-12-12T17:28:34.033Z,80.26
2022-12-12T17:31:02.225Z,80.74
2022-12-12T17:33:29.072Z,80.98
2022-12-12T17:36:01.686Z,81.17
2022-12-12T17:38:30.601Z,80.85
2022-12-12T17:40:58.594Z,80.71
2022-12-12T17:43:26.089Z,81.08
2022-12-12T17:46:05.434Z,80.99
2022-12-12T17:48:35.114Z,81.46
2022-12-12T17:51:05.591Z,81.21
2022-12-12T17:53:38.600Z,81.22
2022-12-12T17:56:17.747Z,80.64
2022-12-12T17:58:47.495Z,80.96
2022-12-12T18:01:31.544Z,81.06
2022-12-12T18:04:01.210Z,81.25
2022-12-12T18:06:31.552Z,81.54
2022-12-12T18:08:58.762Z,81.36
2022-12-12T18:11:32.824Z,81.99
2022-12-12T18:14:07.725Z,81.69
2022-12-12T18:16:43.489Z,81.70
2022-12-12T18:19:38.589Z,81.97
2022-12-12T18:22:05.428Z,82.05
2022-12-12T18:24:33.082Z,82.44
2022-12-12T18:27:03.293Z,82.89
2022-12-12T18:29:30.229Z,83.11
2022-12-12T18:32:00.064Z,83.75
2022-12-12T18:34:30.918Z,83.75
2022-12-12T18:36:59.141Z,82.78
2022-12-12T18:39:26.066Z,82.57
2022-12-12T18:41:52.930Z,82.22
2022-12-12T18:44:19.830Z,82.09
2022-12-12T18:46:48.011Z,82.58
2022-12-12T18:49:15.967Z,82.39
2022-12-12T18:51:44.657Z,82.52
2022-12-12T18:54:15.350Z,83.00
2022-12-12T18:56:45.673Z,83.16
2022-12-12T18:59:13.409Z,83.55
2022-12-12T19:01:40.295Z,83.66
2022-12-12T19:04:12.537Z,83.31
2022-12-12T19:06:43.004Z,83.37
2022-12-12T19:09:16.299Z,83.72
2022-12-12T19:11:44.298Z,83.73
2022-12-12T19:14:13.375Z,83.90
2022-12-12T19:16:40.770Z,83.72
2022-12-12T19:19:09.563Z,83.63
2022-12-12T19:21:37.439Z,84.32
2022-12-12T19:24:09.094Z,85.29
2022-12-12T19:26:37.563Z,85.59
2022-12-12T19:29:12.298Z,86.08
2022-12-12T19:31:40.152Z,86.92
2022-12-12T19:34:09.073Z,86.27
2022-12-12T19:36:36.109Z,86.36
2022-12-12T19:39:06.632Z,86.12
2022-12-12T19:41:35.164Z,85.63
2022-12-12T19:44:04.222Z,86.39
2022-12-12T19:46:32.786Z,86.22
2022-12-12T19:49:07.251Z,86.21
2022-12-12T19:51:37.288Z,86.13
2022-12-12T19:54:09.036Z,86.32
2022-12-12T19:56:38.368Z,86.47
2022-12-12T19:59:05.283Z,86.49
2022-12-12T20:01:35.188Z,86.77
2022-12-12T20:04:12.302Z,86.79
2022-12-12T20:06:45.597Z,86.25
2022-12-12T20:09:19.915Z,86.23
2022-12-12T20:11:47.705Z,86.86
2022-12-12T20:14:21.736Z,86.06
2022-12-12T20:16:50.273Z,85.50
2022-12-12T20:19:17.969Z,85.93
2022-12-12T20:22:03.268Z,86.00
2022-12-12T20:24:33.182Z,86.04
2022-12-12T20:27:03.058Z,86.34
2022-12-12T20:29:29.995Z,86.28
2022-12-12T20:31:59.561Z,86.35
2022-12-12T20:34:26.466Z,86.45
2022-12-12T20:36:55.522Z,86.73
2022-12-12T20:39:24.626Z,86.83
2022-12-12T20:41:56.561Z,86.76
2022-12-12T20:44:28.895Z,86.76
2022-12-12T20:46:55.721Z,86.44
2022-12-12T20:49:23.804Z,86.36
2022-12-12T20:51:55.767Z,86.34
2022-12-12T20:54:25.971Z,87.13
2022-12-12T20:56:54.392Z,86.81
2022-12-12T20:59:21.436Z,86.82
2022-12-12T21:01:48.366Z,86.62
2022-12-12T21:04:15.621Z,87.22
2022-12-12T21:06:47.707Z,87.56
2022-12-12T21:09:19.428Z,88.10
2022-12-12T21:11:49.823Z,87.47
2022-12-12T21:14:16.937Z,87.69
2022-12-12T21:16:43.870Z,87.37
2022-12-12T21:19:13.580Z,87.47
2022-12-12T21:21:43.421Z,87.66
2022-12-12T21:24:12.698Z,87.29
2022-12-12T21:26:39.612Z,86.94
2022-12-12T21:29:06.780Z,86.73
2022-12-12T21:31:38.615Z,87.16
2022-12-12T21:34:06.361Z,86.52
2022-12-12T21:36:34.323Z,87.00
2022-12-12T21:39:03.460Z,86.91
2022-12-12T21:41:30.384Z,87.16
2022-12-12T21:43:59.502Z,87.11
2022-12-12T21:46:28.385Z,87.43
2022-12-12T21:49:15.849Z,87.40
2022-12-12T21:51:43.228Z,86.84
2022-12-12T21:54:12.817Z,87.67
2022-12-12T21:56:40.990Z,86.90
2022-12-12T21:59:08.522Z,86.46
2022-12-12T22:01:35.455Z,87.77
2022-12-12T22:04:02.758Z,87.37
2022-12-12T22:06:32.740Z,86.93
2022-12-12T22:09:01.848Z,86.31
2022-12-12T22:11:41.851Z,87.58
2022-12-12T22:14:20.115Z,87.86
2022-12-12T22:16:46.927Z,88.67
2022-12-12T22:19:15.919Z,88.76
2022-12-12T22:21:46.352Z,87.19
2022-12-12T22:24:13.875Z,86.93
2022-12-12T22:26:45.429Z,85.66
2022-12-12T22:29:16.188Z,87.00
2022-12-12T22:31:44.683Z,85.90
2022-12-12T22:34:18.016Z,86.29
2022-12-12T22:36:46.163Z,86.31
2022-12-12T22:39:17.793Z,87.03
2022-12-12T22:41:45.650Z,87.29
2022-12-12T22:44:15.982Z,87.39
2022-12-12T22:46:44.990Z,88.72
2022-12-12T22:49:14.972Z,88.97
2022-12-12T22:51:42.930Z,90.63
2022-12-12T22:54:09.888Z,91.28
2022-12-12T22:56:38.360Z,90.59
2022-12-12T22:59:06.676Z,90.51
2022-12-12T23:01:33.956Z,90.27
2022-12-12T23:04:01.194Z,89.36
2022-12-12T23:06:33.912Z,89.56
2022-12-12T23:09:07.269Z,88.64
2022-12-12T23:11:35.622Z,88.86
2022-12-12T23:14:09.257Z,87.77
2022-12-12T23:16:36.470Z,88.15
2022-12-12T23:19:05.807Z,87.54
2022-12-12T23:21:34.754Z,86.76
2022-12-12T23:24:02.861Z,86.71
2022-12-12T23:26:35.149Z,85.96
2022-12-12T23:29:02.770Z,87.64
2022-12-12T23:31:32.734Z,85.59
2022-12-12T23:34:05.542Z,84.98
2022-12-12T23:36:32.713Z,85.32
2022-12-12T23:39:03.993Z,84.83
2022-12-12T23:41:30.819Z,84.37
2022-12-12T23:43:57.747Z,84.26
2022-12-12T23:46:28.439Z,83.80
2022-12-12T23:49:01.701Z,83.74
2022-12-12T23:51:36.145Z,83.41
2022-12-12T23:54:06.973Z,82.87
2022-12-12T23:56:34.008Z,82.03
2022-12-12T23:59:01.120Z,83.08
